createdAt,value
2018-02-14T00:00:51.046Z,101058.16
2018-02-14T00:03:19.408Z,101061.67
2018-02-14T00:05:47.725Z,101058.84
2018-02-14T00:08:16.821Z,101061.30
2018-02-14T00:10:45.929Z,101060.21
2018-02-14T00:13:14.289Z,101065.02
2018-02-14T00:15:42.640Z,101066.06
2018-02-14T00:18:10.991Z,101066.20
2018-02-14T00:20:39.313Z,101071.09
2018-02-14T00:23:07.694Z,101068.22
2018-02-14T00:25:36.014Z,101064.98
2018-02-14T00:28:04.446Z,101072.97
2018-02-14T00:30:32.757Z,101075.81
2018-02-14T00:33:01.122Z,101075.23
2018-02-14T00:35:30.220Z,101078.44
2018-02-14T00:37:59.341Z,101077.33
2018-02-14T00:40:27.707Z,101083.27
2018-02-14T00:42:56.044Z,101082.89
2018-02-14T00:45:24.349Z,101083.81
2018-02-14T00:47:52.669Z,101085.38
2018-02-14T00:50:21.037Z,101084.70
2018-02-14T00:52:49.799Z,101089.84
2018-02-14T00:55:18.140Z,101092.81
2018-02-14T00:57:46.481Z,101083.50
2018-02-14T01:00:14.839Z,101087.83
2018-02-14T01:02:43.150Z,101087.39
2018-02-14T01:05:11.521Z,101091.89
2018-02-14T01:07:39.849Z,101088.09
2018-02-14T01:10:08.197Z,101086.00
2018-02-14T01:12:36.547Z,101080.09
2018-02-14T01:15:04.869Z,101080.70
2018-02-14T01:17:33.968Z,101081.80
2018-02-14T01:20:09.133Z,101084.10
2018-02-14T01:22:37.447Z,101079.91
2018-02-14T01:25:05.770Z,101085.89
2018-02-14T01:27:34.896Z,101084.54
2018-02-14T01:30:03.245Z,101087.58
2018-02-14T01:32:32.341Z,101081.30
2018-02-14T01:35:01.465Z,101082.56
2018-02-14T01:37:29.827Z,101080.97
2018-02-14T01:39:58.140Z,101084.81
2018-02-14T01:42:26.451Z,101083.66
2018-02-14T01:44:54.829Z,101082.92
2018-02-14T01:47:23.917Z,101084.33
2018-02-14T01:49:52.258Z,101092.09
2018-02-14T01:52:20.737Z,101086.10
2018-02-14T01:54:49.069Z,101092.23
2018-02-14T01:57:17.396Z,101085.84
2018-02-14T01:59:45.765Z,101093.77
2018-02-14T02:02:14.096Z,101094.87
2018-02-14T02:04:42.446Z,101103.06
2018-02-14T02:07:11.162Z,101108.06
2018-02-14T02:09:40.296Z,101101.24
2018-02-14T02:12:08.625Z,101111.12
2018-02-14T02:14:36.976Z,101104.84
2018-02-14T02:17:05.327Z,101107.68
2018-02-14T02:19:33.668Z,101105.69
2018-02-14T02:22:02.015Z,101108.09
2018-02-14T02:24:30.362Z,101107.61
2018-02-14T02:26:58.736Z,101114.11
2018-02-14T02:29:27.085Z,101114.92
2018-02-14T02:31:55.488Z,101121.38
2018-02-14T02:34:23.828Z,101115.22
2018-02-14T02:36:52.185Z,101116.14
2018-02-14T02:39:38.077Z,101118.61
2018-02-14T02:42:06.408Z,101116.17
2018-02-14T02:44:34.797Z,101112.19
2018-02-14T02:47:03.166Z,101122.61
2018-02-14T02:49:31.485Z,101124.56
2018-02-14T02:51:59.856Z,101118.87
2018-02-14T02:54:28.174Z,101117.10
2018-02-14T02:56:57.304Z,101123.05
2018-02-14T02:59:27.144Z,101122.94
2018-02-14T03:01:55.504Z,101127.41
2018-02-14T03:04:24.220Z,101132.70
2018-02-14T03:06:52.568Z,101127.45
2018-02-14T03:09:20.964Z,101132.50
2018-02-14T03:11:49.320Z,101133.45
2018-02-14T03:14:17.655Z,101129.09
2018-02-14T03:16:46.784Z,101128.28
2018-02-14T03:19:15.151Z,101128.55
2018-02-14T03:21:43.492Z,101126.92
2018-02-14T03:24:11.842Z,101124.49
2018-02-14T03:26:40.184Z,101128.48
2018-02-14T03:29:08.556Z,101133.36
2018-02-14T03:31:36.888Z,101137.72
2018-02-14T03:34:05.239Z,101133.91
2018-02-14T03:36:33.595Z,101136.69
2018-02-14T03:39:01.914Z,101135.98
2018-02-14T03:41:30.272Z,101139.90
2018-02-14T03:43:58.593Z,101145.02
2018-02-14T03:46:27.724Z,101146.74
2018-02-14T03:48:56.038Z,101144.91
2018-02-14T03:51:24.392Z,101138.02
2018-02-14T03:53:52.698Z,101141.59
2018-02-14T03:56:21.060Z,101145.31
2018-02-14T03:58:49.384Z,101153.36
2018-02-14T04:01:19.070Z,101157.30
2018-02-14T04:03:48.184Z,101163.42
2018-02-14T04:06:17.305Z,101163.75
2018-02-14T04:08:45.646Z,101168.27
2018-02-14T04:11:13.978Z,101172.02
2018-02-14T04:13:42.341Z,101180.98
2018-02-14T04:16:10.672Z,101178.04
2018-02-14T04:18:39.043Z,101179.87
2018-02-14T04:21:07.396Z,101184.15
2018-02-14T04:23:35.720Z,101190.39
2018-02-14T04:26:04.855Z,101186.85
2018-02-14T04:28:33.227Z,101192.95
2018-02-14T04:31:01.538Z,101198.45
2018-02-14T04:33:29.871Z,101203.47
2018-02-14T04:35:58.243Z,101205.03
2018-02-14T04:38:27.343Z,101211.28
2018-02-14T04:40:55.676Z,101207.20
2018-02-14T04:43:24.039Z,101211.45
2018-02-14T04:45:52.382Z,101210.09
2018-02-14T04:48:21.509Z,101214.41
2018-02-14T04:50:49.871Z,101213.49
2018-02-14T04:53:18.256Z,101215.92
2018-02-14T04:55:46.590Z,101219.87
2018-02-14T04:58:15.703Z,101222.50
2018-02-14T05:00:44.059Z,101220.32
2018-02-14T05:03:13.206Z,101229.65
2018-02-14T05:05:41.517Z,101225.33
2018-02-14T05:08:09.877Z,101227.30
2018-02-14T05:10:38.284Z,101234.21
2018-02-14T05:13:07.417Z,101233.16
2018-02-14T05:15:35.784Z,101228.40
2018-02-14T05:18:04.123Z,101228.80
2018-02-14T05:20:32.484Z,101237.97
2018-02-14T05:23:00.819Z,101240.06
2018-02-14T05:25:29.165Z,101233.92
2018-02-14T05:27:57.491Z,101244.63
2018-02-14T05:30:25.859Z,101250.36
2018-02-14T05:32:54.177Z,101245.19
2018-02-14T05:35:22.505Z,101252.86
2018-02-14T05:37:50.883Z,101252.78
2018-02-14T05:40:19.628Z,101251.11
2018-02-14T05:42:48.023Z,101260.80
2018-02-14T05:45:16.356Z,101262.44
2018-02-14T05:47:44.687Z,101259.88
2018-02-14T05:50:13.039Z,101258.38
2018-02-14T05:52:41.385Z,101265.64
2018-02-14T05:55:09.757Z,101272.92
2018-02-14T05:57:38.126Z,101275.62
2018-02-14T06:00:06.459Z,101276.64
2018-02-14T06:02:35.594Z,101276.22
2018-02-14T06:05:03.971Z,101280.01
2018-02-14T06:07:32.371Z,101280.38
2018-02-14T06:10:01.539Z,101285.64
2018-02-14T06:12:29.903Z,101289.84
2018-02-14T06:14:58.247Z,101279.34
2018-02-14T06:17:26.623Z,101298.47
2018-02-14T06:19:54.957Z,101300.66
2018-02-14T06:22:23.301Z,101303.22
2018-02-14T06:24:52.391Z,101309.92
2018-02-14T06:27:21.511Z,101306.12
2018-02-14T06:29:50.103Z,101310.72
2018-02-14T06:32:18.514Z,101318.52
2018-02-14T06:34:46.906Z,101319.91
2018-02-14T06:37:15.238Z,101318.70
2018-02-14T06:39:43.599Z,101322.05
2018-02-14T06:42:12.722Z,101322.70
2018-02-14T06:44:41.040Z,101328.20
2018-02-14T06:47:09.395Z,101325.05
2018-02-14T06:49:38.113Z,101332.05
2018-02-14T06:52:08.287Z,101327.03
2018-02-14T06:54:36.618Z,101331.08
2018-02-14T06:57:05.759Z,101333.45
2018-02-14T06:59:34.085Z,101335.31
2018-02-14T07:02:02.462Z,101336.41
2018-02-14T07:04:30.789Z,101336.23
2018-02-14T07:06:59.167Z,101335.67
2018-02-14T07:09:27.506Z,101350.50
2018-02-14T07:11:56.610Z,101340.80
2018-02-14T07:14:25.730Z,101349.76
2018-02-14T07:16:54.051Z,101350.03
2018-02-14T07:19:22.414Z,101346.31
2018-02-14T07:21:50.761Z,101353.61
2018-02-14T07:24:19.080Z,101358.50
2018-02-14T07:26:47.432Z,101364.01
2018-02-14T07:29:15.790Z,101346.00
2018-02-14T07:31:44.511Z,101366.54
2018-02-14T07:34:12.876Z,101372.39
2018-02-14T07:36:41.228Z,101376.73
2018-02-14T07:39:09.550Z,101380.94
2018-02-14T07:41:37.922Z,101380.66
2018-02-14T07:44:06.254Z,101386.00
2018-02-14T07:46:34.638Z,101383.28
2018-02-14T07:49:02.970Z,101388.90
2018-02-14T07:51:31.302Z,101396.81
2018-02-14T07:53:59.661Z,101402.67
2018-02-14T07:56:27.993Z,101396.84
2018-02-14T07:58:56.356Z,101400.69
2018-02-14T08:01:24.712Z,101403.02
2018-02-14T08:03:53.104Z,101403.27
2018-02-14T08:06:21.472Z,101403.94
2018-02-14T08:08:49.807Z,101395.67
2018-02-14T08:11:18.940Z,101402.17
2018-02-14T08:13:47.253Z,101402.19
2018-02-14T08:16:15.622Z,101406.66
2018-02-14T08:18:43.970Z,101402.56
2018-02-14T08:21:12.290Z,101408.27
2018-02-14T08:23:40.653Z,101404.72
2018-02-14T08:26:09.014Z,101407.52
2018-02-14T08:28:37.354Z,101414.55
2018-02-14T08:31:06.454Z,101408.34
2018-02-14T08:33:34.790Z,101412.20
2018-02-14T08:36:03.150Z,101408.88
2018-02-14T08:38:31.478Z,101406.34
2018-02-14T08:41:00.582Z,101409.70
2018-02-14T08:43:29.716Z,101410.02
2018-02-14T08:45:58.086Z,101411.17
2018-02-14T08:48:26.435Z,101406.80
2018-02-14T08:50:54.780Z,101410.41
2018-02-14T08:53:23.136Z,101408.62
2018-02-14T08:55:51.466Z,101414.14
2018-02-14T08:58:20.580Z,101421.76
2018-02-14T09:00:49.679Z,101422.39
2018-02-14T09:03:18.045Z,101422.55
2018-02-14T09:05:46.424Z,101424.72
2018-02-14T09:08:14.752Z,101426.02
2018-02-14T09:10:43.110Z,101424.61
2018-02-14T09:13:11.481Z,101422.48
2018-02-14T09:15:39.792Z,101425.14
2018-02-14T09:18:08.134Z,101423.29
2018-02-14T09:20:36.850Z,101418.98
2018-02-14T09:23:05.193Z,101425.81
2018-02-14T09:25:33.549Z,101429.59
2018-02-14T09:28:01.883Z,101426.93
2018-02-14T09:30:30.251Z,101425.84
2018-02-14T09:32:58.579Z,101429.46
2018-02-14T09:35:26.890Z,101436.05
2018-02-14T09:37:55.253Z,101429.49
2018-02-14T09:40:23.603Z,101435.97
2018-02-14T09:42:52.688Z,101435.22
2018-02-14T09:45:21.824Z,101435.08
2018-02-14T09:47:50.213Z,101440.26
2018-02-14T09:50:18.568Z,101439.53
2018-02-14T09:52:46.923Z,101438.63
2018-02-14T09:55:15.999Z,101446.32
2018-02-14T09:57:44.428Z,101449.39
2018-02-14T10:00:12.818Z,101442.48
2018-02-14T10:02:41.905Z,101446.69
2018-02-14T10:05:10.246Z,101449.38
2018-02-14T10:07:38.590Z,101455.06
2018-02-14T10:10:06.912Z,101448.20
2018-02-14T10:12:35.249Z,101450.73
2018-02-14T10:15:03.584Z,101456.81
2018-02-14T10:17:32.705Z,101449.56
2018-02-14T10:20:01.051Z,101446.59
2018-02-14T10:22:29.369Z,101451.46
2018-02-14T10:24:57.728Z,101446.31
2018-02-14T10:27:26.035Z,101446.31
2018-02-14T10:29:54.366Z,101445.60
2018-02-14T10:32:22.716Z,101443.21
2018-02-14T10:34:51.800Z,101437.34
2018-02-14T10:37:20.919Z,101435.62
2018-02-14T10:39:49.336Z,101435.33
2018-02-14T10:42:17.673Z,101436.75
2018-02-14T10:44:46.032Z,101436.23
2018-02-14T10:47:15.147Z,101436.32
2018-02-14T10:49:43.483Z,101430.28
2018-02-14T10:52:11.916Z,101428.98
2018-02-14T10:54:40.244Z,101430.56
2018-02-14T10:57:09.318Z,101432.50
2018-02-14T10:59:37.666Z,101433.00
2018-02-14T11:02:10.938Z,101431.50
2018-02-14T11:04:45.400Z,101428.90
2018-02-14T11:07:19.594Z,101431.06
2018-02-14T11:09:48.697Z,101434.23
2018-02-14T11:12:17.049Z,101433.68
2018-02-14T11:14:45.374Z,101428.95
2018-02-14T11:17:13.730Z,101431.44
2018-02-14T11:19:42.076Z,101433.18
2018-02-14T11:22:10.452Z,101433.94
2018-02-14T11:24:38.851Z,101432.20
2018-02-14T11:27:07.168Z,101437.90
2018-02-14T11:29:35.540Z,101446.75
2018-02-14T11:32:03.872Z,101437.30
2018-02-14T11:34:33.254Z,101439.55
2018-02-14T11:37:01.316Z,101432.84
2018-02-14T11:39:30.408Z,101433.98
2018-02-14T11:41:58.748Z,101432.13
2018-02-14T11:44:27.072Z,101431.89
2018-02-14T11:46:55.394Z,101429.97
2018-02-14T11:49:23.765Z,101432.34
2018-02-14T11:51:52.837Z,101429.23
2018-02-14T11:54:21.200Z,101425.77
2018-02-14T11:56:49.559Z,101425.72
2018-02-14T11:59:17.879Z,101421.40
2018-02-14T12:01:46.228Z,101433.98
2018-02-14T12:04:14.976Z,101429.33
2018-02-14T12:06:43.341Z,101435.55
2018-02-14T12:09:11.665Z,101436.16
2018-02-14T12:11:39.971Z,101437.10
2018-02-14T12:14:09.090Z,101428.21
2018-02-14T12:16:37.411Z,101432.55
2018-02-14T12:19:05.728Z,101430.09
2018-02-14T12:21:34.849Z,101433.45
2018-02-14T12:24:03.184Z,101417.93
2018-02-14T12:26:32.315Z,101427.93
2018-02-14T12:29:00.637Z,101422.46
2018-02-14T12:31:28.992Z,101430.02
2018-02-14T12:33:57.348Z,101426.87
2018-02-14T12:36:25.672Z,101430.16
2018-02-14T12:38:54.031Z,101430.00
2018-02-14T12:41:22.346Z,101436.31
2018-02-14T12:43:51.469Z,101438.83
2018-02-14T12:46:19.849Z,101440.30
2018-02-14T12:48:48.201Z,101438.83
2018-02-14T12:51:16.525Z,101441.56
2018-02-14T12:53:44.889Z,101443.84
2018-02-14T12:56:13.203Z,101435.20
2018-02-14T12:58:41.549Z,101436.95
2018-02-14T13:01:10.473Z,101437.73
2018-02-14T13:03:38.822Z,101435.92
2018-02-14T13:06:07.177Z,101433.95
2018-02-14T13:08:35.499Z,101422.39
2018-02-14T13:11:03.850Z,101427.61
2018-02-14T13:13:32.183Z,101429.26
2018-02-14T13:16:01.320Z,101431.50
2018-02-14T13:18:29.656Z,101430.18
2018-02-14T13:20:58.737Z,101428.55
2018-02-14T13:23:27.945Z,101433.41
2018-02-14T13:25:57.074Z,101435.70
2018-02-14T13:28:25.415Z,101433.48
2018-02-14T13:30:53.827Z,101432.13
2018-02-14T13:33:22.143Z,101438.91
2018-02-14T13:35:50.459Z,101440.95
2018-02-14T13:38:19.565Z,101444.78
2018-02-14T13:40:47.894Z,101443.13
2018-02-14T13:43:16.259Z,101443.20
2018-02-14T13:45:44.582Z,101451.80
2018-02-14T13:48:13.699Z,101449.84
2018-02-14T13:50:42.005Z,101438.06
2018-02-14T13:53:10.319Z,101437.75
2018-02-14T13:55:39.522Z,101444.23
2018-02-14T13:58:08.631Z,101443.31
2018-02-14T14:00:37.730Z,101452.20
2018-02-14T14:03:06.090Z,101456.53
2018-02-14T14:05:35.175Z,101452.90
2018-02-14T14:08:03.507Z,101459.35
2018-02-14T14:10:32.641Z,101462.38
2018-02-14T14:13:00.938Z,101460.72
2018-02-14T14:15:30.052Z,101465.52
2018-02-14T14:17:58.371Z,101461.80
2018-02-14T14:20:26.727Z,101464.78
2018-02-14T14:22:55.055Z,101467.34
2018-02-14T14:25:24.179Z,101467.45
2018-02-14T14:27:52.481Z,101470.90
2018-02-14T14:30:20.804Z,101472.75
2018-02-14T14:32:49.914Z,101472.19
2018-02-14T14:35:18.994Z,101470.44
2018-02-14T14:37:48.114Z,101471.71
2018-02-14T14:40:16.449Z,101474.25
2018-02-14T14:42:45.592Z,101474.24
2018-02-14T14:45:13.958Z,101469.41
2018-02-14T14:47:43.083Z,101470.53
2018-02-14T14:50:11.429Z,101475.31
2018-02-14T14:52:40.632Z,101482.95
2018-02-14T14:55:08.949Z,101478.84
2018-02-14T14:57:37.263Z,101483.65
2018-02-14T15:00:05.618Z,101486.45
2018-02-14T15:02:33.931Z,101484.99
2018-02-14T15:05:03.039Z,101481.81
2018-02-14T15:07:31.399Z,101486.16
2018-02-14T15:09:59.746Z,101490.31
2018-02-14T15:12:28.090Z,101490.69
2018-02-14T15:14:56.442Z,101491.09
2018-02-14T15:17:24.824Z,101493.66
2018-02-14T15:19:53.137Z,101490.95
2018-02-14T15:22:21.502Z,101489.88
2018-02-14T15:24:49.854Z,101489.23
2018-02-14T15:27:18.986Z,101491.61
2018-02-14T15:29:47.387Z,101493.83
2018-02-14T15:32:15.719Z,101497.92
2018-02-14T15:34:44.071Z,101503.16
2018-02-14T15:37:13.168Z,101506.92
2018-02-14T15:39:41.540Z,101510.12
2018-02-14T15:42:09.865Z,101506.94
2018-02-14T15:44:38.182Z,101508.33
2018-02-14T15:47:06.548Z,101510.98
2018-02-14T15:49:34.872Z,101514.73
2018-02-14T15:52:03.230Z,101522.88
2018-02-14T15:54:31.558Z,101523.45
2018-02-14T15:56:59.931Z,101520.84
2018-02-14T15:59:28.279Z,101530.45
2018-02-14T16:01:56.627Z,101529.59
2018-02-14T16:04:24.954Z,101532.83
2018-02-14T16:06:53.313Z,101535.42
2018-02-14T16:09:21.690Z,101538.70
2018-02-14T16:11:50.016Z,101539.72
2018-02-14T16:14:18.342Z,101542.94
2018-02-14T16:16:47.206Z,101548.22
2018-02-14T16:19:16.651Z,101551.85
2018-02-14T16:21:45.028Z,101548.64
2018-02-14T16:24:13.378Z,101551.42
2018-02-14T16:26:41.738Z,101562.19
2018-02-14T16:29:10.223Z,101556.25
2018-02-14T16:31:38.625Z,101560.85
2018-02-14T16:34:07.038Z,101560.44
2018-02-14T16:36:35.852Z,101564.76
2018-02-14T16:39:04.271Z,101563.90
2018-02-14T16:41:33.058Z,101560.94
2018-02-14T16:44:01.472Z,101559.35
2018-02-14T16:46:29.818Z,101559.71
2018-02-14T16:48:58.230Z,101565.23
2018-02-14T16:51:26.626Z,101567.22
2018-02-14T16:53:55.042Z,101571.98
2018-02-14T16:56:24.973Z,101576.43
2018-02-14T16:58:53.350Z,101581.08
2018-02-14T17:01:22.259Z,101578.02
2018-02-14T17:03:50.610Z,101573.55
2018-02-14T17:06:19.039Z,101579.02
2018-02-14T17:08:47.445Z,101583.50
2018-02-14T17:11:16.671Z,101590.16
2018-02-14T17:13:45.069Z,101593.27
2018-02-14T17:16:13.483Z,101589.96
2018-02-14T17:18:42.428Z,101595.72
2018-02-14T17:21:12.028Z,101600.14
2018-02-14T17:23:40.560Z,101605.83
2018-02-14T17:26:10.331Z,101604.75
2018-02-14T17:28:39.219Z,101597.22
2018-02-14T17:31:07.574Z,101591.34
2018-02-14T17:33:36.791Z,101595.97
2018-02-14T17:36:05.167Z,101602.49
2018-02-14T17:38:33.524Z,101602.20
2018-02-14T17:41:02.648Z,101605.55
2018-02-14T17:43:31.480Z,101607.23
2018-02-14T17:45:59.873Z,101613.45
2018-02-14T17:48:28.570Z,101599.26
2018-02-14T17:50:57.837Z,101600.53
2018-02-14T17:53:35.241Z,101606.14
2018-02-14T17:56:04.889Z,101606.37
2018-02-14T17:58:33.414Z,101604.19
2018-02-14T18:01:03.013Z,101599.81
2018-02-14T18:03:31.409Z,101602.27
2018-02-14T18:06:00.551Z,101607.38
2018-02-14T18:08:29.319Z,101608.39
2018-02-14T18:10:58.449Z,101622.23
2018-02-14T18:13:26.795Z,101618.99
2018-02-14T18:15:55.918Z,101624.36
2018-02-14T18:18:24.245Z,101625.84
2018-02-14T18:20:52.655Z,101628.27
2018-02-14T18:23:21.765Z,101629.04
2018-02-14T18:25:50.103Z,101631.59
2018-02-14T18:28:18.488Z,101634.27
2018-02-14T18:30:46.821Z,101636.34
2018-02-14T18:33:15.190Z,101638.58
2018-02-14T18:35:43.925Z,101639.61
2018-02-14T18:38:12.381Z,101639.47
2018-02-14T18:40:40.727Z,101641.13
2018-02-14T18:43:09.858Z,101647.21
2018-02-14T18:45:38.213Z,101655.38
2018-02-14T18:48:06.539Z,101661.53
2018-02-14T18:50:34.903Z,101667.09
2018-02-14T18:53:03.250Z,101668.02
2018-02-14T18:55:31.852Z,101664.83
2018-02-14T18:58:00.190Z,101665.34
2018-02-14T19:00:28.561Z,101663.27
2018-02-14T19:02:56.992Z,101662.83
2018-02-14T19:05:25.369Z,101662.61
2018-02-14T19:07:53.739Z,101657.34
2018-02-14T19:10:22.126Z,101657.52
2018-02-14T19:12:50.496Z,101659.82
2018-02-14T19:15:18.840Z,101672.14
2018-02-14T19:17:47.281Z,101669.91
2018-02-14T19:20:15.633Z,101674.98
2018-02-14T19:22:43.992Z,101676.69
2018-02-14T19:25:12.362Z,101689.08
2018-02-14T19:27:40.809Z,101688.07
2018-02-14T19:30:10.018Z,101677.95
2018-02-14T19:32:38.424Z,101681.22
2018-02-14T19:35:07.554Z,101674.66
2018-02-14T19:37:35.894Z,101679.41
2018-02-14T19:40:04.679Z,101685.94
2018-02-14T19:42:33.052Z,101683.88
2018-02-14T19:45:02.186Z,101689.98
2018-02-14T19:47:30.511Z,101686.56
2018-02-14T19:49:58.896Z,101697.76
2018-02-14T19:52:27.236Z,101696.53
2018-02-14T19:54:56.706Z,101699.47
2018-02-14T19:57:25.080Z,101701.63
2018-02-14T19:59:53.481Z,101699.30
2018-02-14T20:02:22.210Z,101708.05
2018-02-14T20:04:50.592Z,101709.92
2018-02-14T20:07:19.606Z,101712.09
2018-02-14T20:09:47.926Z,101704.59
2018-02-14T20:12:17.074Z,101712.12
2018-02-14T20:14:45.512Z,101708.55
2018-02-14T20:17:14.620Z,101709.17
2018-02-14T20:19:43.736Z,101709.41
2018-02-14T20:22:12.168Z,101713.16
2018-02-14T20:24:40.514Z,101715.26
2018-02-14T20:27:08.919Z,101717.87
2018-02-14T20:29:38.056Z,101721.97
2018-02-14T20:32:06.387Z,101722.73
2018-02-14T20:34:34.760Z,101728.98
2018-02-14T20:37:03.110Z,101721.03
2018-02-14T20:39:31.957Z,101717.13
2018-02-14T20:42:01.047Z,101716.93
2018-02-14T20:44:29.928Z,101716.02
2018-02-14T20:46:59.038Z,101719.87
2018-02-14T20:49:27.674Z,101714.53
2018-02-14T20:51:56.564Z,101712.64
2018-02-14T20:54:25.159Z,101715.55
2018-02-14T20:56:54.479Z,101721.37
2018-02-14T20:59:23.582Z,101721.58
2018-02-14T21:01:51.928Z,101721.37
2018-02-14T21:04:21.967Z,101729.45
2018-02-14T21:06:50.824Z,101720.65
2018-02-14T21:09:20.016Z,101727.55
2018-02-14T21:11:48.376Z,101730.31
2018-02-14T21:14:16.708Z,101726.90
2018-02-14T21:16:45.164Z,101732.02
2018-02-14T21:19:13.486Z,101737.64
2018-02-14T21:21:43.188Z,101729.12
2018-02-14T21:24:11.550Z,101739.40
2018-02-14T21:26:39.933Z,101739.18
2018-02-14T21:29:08.311Z,101736.77
2018-02-14T21:31:36.841Z,101747.05
2018-02-14T21:34:06.503Z,101750.72
2018-02-14T21:36:34.951Z,101754.45
2018-02-14T21:39:03.289Z,101745.97
2018-02-14T21:41:31.673Z,101741.30
2018-02-14T21:44:00.023Z,101745.25
2018-02-14T21:46:28.783Z,101741.94
2018-02-14T21:48:57.520Z,101746.70
2018-02-14T21:51:27.246Z,101741.99
2018-02-14T21:53:55.695Z,101736.02
2018-02-14T21:56:25.749Z,101737.10
2018-02-14T21:58:54.107Z,101732.72
2018-02-14T22:01:22.479Z,101739.06
2018-02-14T22:03:51.598Z,101736.80
2018-02-14T22:06:21.121Z,101736.47
2018-02-14T22:08:49.453Z,101738.14
2018-02-14T22:11:18.544Z,101741.22
2018-02-14T22:13:47.767Z,101728.80
2018-02-14T22:16:16.119Z,101720.10
2018-02-14T22:18:44.435Z,101715.98
2018-02-14T22:21:12.817Z,101717.42
2018-02-14T22:23:41.599Z,101714.34
2018-02-14T22:26:10.681Z,101717.99
2018-02-14T22:28:39.058Z,101710.20
2018-02-14T22:31:07.392Z,101709.94
2018-02-14T22:33:36.648Z,101702.97
2018-02-14T22:36:04.966Z,101708.30
2018-02-14T22:38:33.405Z,101705.55
2018-02-14T22:41:01.721Z,101711.01
2018-02-14T22:43:30.112Z,101714.09
2018-02-14T22:45:58.461Z,101706.19
2018-02-14T22:48:26.798Z,101701.74
2018-02-14T22:50:55.160Z,101713.33
2018-02-14T22:53:24.331Z,101707.19
2018-02-14T22:55:52.648Z,101712.88
2018-02-14T22:58:21.026Z,101710.39
2018-02-14T23:00:49.411Z,101700.95
2018-02-14T23:03:17.748Z,101702.58
2018-02-14T23:05:46.136Z,101687.34
2018-02-14T23:08:14.454Z,101686.08
2018-02-14T23:10:42.800Z,101680.41
2018-02-14T23:13:11.933Z,101683.00
2018-02-14T23:15:40.287Z,101678.58
2018-02-14T23:18:08.652Z,101680.89
2018-02-14T23:20:37.758Z,101676.25
2018-02-14T23:23:06.891Z,101674.28
2018-02-14T23:25:35.223Z,101676.55
2018-02-14T23:28:04.366Z,101677.87
2018-02-14T23:30:32.686Z,101674.66
2018-02-14T23:33:01.786Z,101685.01
2018-02-14T23:35:30.916Z,101683.53
2018-02-14T23:37:59.290Z,101684.45
2018-02-14T23:40:27.622Z,101688.31
2018-02-14T23:42:55.962Z,101690.42
2018-02-14T23:45:24.326Z,101693.21
2018-02-14T23:47:52.645Z,101701.00
2018-02-14T23:50:21.778Z,101697.60
2018-02-14T23:52:50.362Z,101692.20
2018-02-14T23:55:19.606Z,101687.36
2018-02-14T23:57:47.948Z,101685.95
